Los Garzones Airport

Airport
ICAO code: 
SKMR
IATA Code: 
MTR
Summary
ICAO Region: 
CARSAM
Territory: 
Location: 
Los Garzones, Cordoba Department
Serving: 
Monteria
Elevation: 
36 ft
Coordinates: 
Aerial View: 
8° 49' 30.707" N, 75° 49' 26.446" W
Metar
Observation
SKMR 210400Z 27004KT 9999 FEW015 26/24 Q1009 RMK A2981
Station
Monteria / Los Garzones
Date/Time
2022-01-21 04:00:00
Wind direction
270°
Wind speed
04 kts
Lowest cloud amount
few clouds
Temperature
26°C
Dew point
24°C
Humidity
88%
QNH
1009 hPa
Weather condition
n/a

Los Garzones Airport is an airport serving the city of Montería in the Córdoba Department of Colombia.

Climatology

Tropical savanna climate (Köppen climate classification Aw)

Runways

Designator Length Width Surface Rops
14/32 1916 35 ASP Yes/Yes
Airport map: 
Aerial View: 

SKYbrary Partners:

Safety knowledge contributed by: